sensor_id;sensor_type;location;lat;lon;timestamp;temperature;humidity
40085;DHT22;25786;51.504;7.344;2022-08-19T00:00:34;19.40;80.00
40085;DHT22;25786;51.504;7.344;2022-08-19T00:03:00;19.30;80.30
40085;DHT22;25786;51.504;7.344;2022-08-19T00:05:25;19.30;80.60
40085;DHT22;25786;51.504;7.344;2022-08-19T00:07:51;19.30;80.60
40085;DHT22;25786;51.504;7.344;2022-08-19T00:10:18;19.30;80.60
40085;DHT22;25786;51.504;7.344;2022-08-19T00:12:44;19.30;80.70
40085;DHT22;25786;51.504;7.344;2022-08-19T00:15:15;19.40;80.50
40085;DHT22;25786;51.504;7.344;2022-08-19T00:17:42;19.30;80.60
40085;DHT22;25786;51.504;7.344;2022-08-19T00:20:09;19.40;80.60
40085;DHT22;25786;51.504;7.344;2022-08-19T00:22:36;19.30;80.60
40085;DHT22;25786;51.504;7.344;2022-08-19T00:25:02;19.30;80.90
40085;DHT22;25786;51.504;7.344;2022-08-19T00:27:27;19.30;80.80
40085;DHT22;25786;51.504;7.344;2022-08-19T00:29:53;19.30;80.50
40085;DHT22;25786;51.504;7.344;2022-08-19T00:32:18;19.20;80.50
40085;DHT22;25786;51.504;7.344;2022-08-19T00:34:43;19.20;80.60
40085;DHT22;25786;51.504;7.344;2022-08-19T00:37:09;19.20;80.60
40085;DHT22;25786;51.504;7.344;2022-08-19T00:39:34;19.20;80.50
40085;DHT22;25786;51.504;7.344;2022-08-19T00:42:00;19.10;80.50
40085;DHT22;25786;51.504;7.344;2022-08-19T00:44:27;19.00;80.70
40085;DHT22;25786;51.504;7.344;2022-08-19T00:46:53;19.00;80.80
40085;DHT22;25786;51.504;7.344;2022-08-19T00:49:30;19.00;80.60
40085;DHT22;25786;51.504;7.344;2022-08-19T00:51:59;19.00;80.70
40085;DHT22;25786;51.504;7.344;2022-08-19T00:54:25;19.00;80.70
40085;DHT22;25786;51.504;7.344;2022-08-19T00:56:51;19.00;80.90
40085;DHT22;25786;51.504;7.344;2022-08-19T00:59:17;18.90;80.90
40085;DHT22;25786;51.504;7.344;2022-08-19T01:01:43;18.80;81.30
40085;DHT22;25786;51.504;7.344;2022-08-19T01:04:09;18.80;81.50
40085;DHT22;25786;51.504;7.344;2022-08-19T01:06:35;18.90;82.10
40085;DHT22;25786;51.504;7.344;2022-08-19T01:09:01;18.90;82.10
40085;DHT22;25786;51.504;7.344;2022-08-19T01:11:27;19.00;82.00
40085;DHT22;25786;51.504;7.344;2022-08-19T01:13:53;19.00;81.70
40085;DHT22;25786;51.504;7.344;2022-08-19T01:16:20;19.00;81.10
40085;DHT22;25786;51.504;7.344;2022-08-19T01:18:46;19.00;81.20
40085;DHT22;25786;51.504;7.344;2022-08-19T01:21:32;18.90;81.10
40085;DHT22;25786;51.504;7.344;2022-08-19T01:23:59;18.90;80.90
40085;DHT22;25786;51.504;7.344;2022-08-19T01:26:25;18.80;81.30
40085;DHT22;25786;51.504;7.344;2022-08-19T01:28:52;18.80;81.40
40085;DHT22;25786;51.504;7.344;2022-08-19T01:31:20;18.70;81.70
40085;DHT22;25786;51.504;7.344;2022-08-19T01:33:47;18.70;82.40
40085;DHT22;25786;51.504;7.344;2022-08-19T01:36:22;18.60;82.70
40085;DHT22;25786;51.504;7.344;2022-08-19T01:38:48;18.60;82.70
40085;DHT22;25786;51.504;7.344;2022-08-19T01:41:14;18.60;82.20
40085;DHT22;25786;51.504;7.344;2022-08-19T01:43:40;18.60;82.80
40085;DHT22;25786;51.504;7.344;2022-08-19T01:46:05;18.60;83.00
40085;DHT22;25786;51.504;7.344;2022-08-19T01:48:35;18.60;82.70
40085;DHT22;25786;51.504;7.344;2022-08-19T01:51:01;18.60;82.90
40085;DHT22;25786;51.504;7.344;2022-08-19T01:53:27;18.70;82.70
40085;DHT22;25786;51.504;7.344;2022-08-19T01:55:52;18.80;82.50
40085;DHT22;25786;51.504;7.344;2022-08-19T01:58:19;18.80;82.40
40085;DHT22;25786;51.504;7.344;2022-08-19T02:00:46;18.70;82.70
40085;DHT22;25786;51.504;7.344;2022-08-19T02:03:11;18.70;82.40
40085;DHT22;25786;51.504;7.344;2022-08-19T02:05:37;18.70;82.20
40085;DHT22;25786;51.504;7.344;2022-08-19T02:08:03;18.80;82.20
40085;DHT22;25786;51.504;7.344;2022-08-19T02:10:29;18.70;82.40
40085;DHT22;25786;51.504;7.344;2022-08-19T02:12:54;18.80;82.60
40085;DHT22;25786;51.504;7.344;2022-08-19T02:15:20;18.70;82.80
40085;DHT22;25786;51.504;7.344;2022-08-19T02:17:46;18.70;82.90
40085;DHT22;25786;51.504;7.344;2022-08-19T02:20:11;18.70;83.10
40085;DHT22;25786;51.504;7.344;2022-08-19T02:22:38;18.80;82.30
40085;DHT22;25786;51.504;7.344;2022-08-19T02:25:05;18.70;82.30
40085;DHT22;25786;51.504;7.344;2022-08-19T02:27:31;18.70;82.30
40085;DHT22;25786;51.504;7.344;2022-08-19T02:29:57;18.60;82.10
40085;DHT22;25786;51.504;7.344;2022-08-19T02:32:22;18.60;82.00
40085;DHT22;25786;51.504;7.344;2022-08-19T02:34:48;18.70;81.60
40085;DHT22;25786;51.504;7.344;2022-08-19T02:37:14;18.60;81.70
40085;DHT22;25786;51.504;7.344;2022-08-19T02:39:58;18.60;81.60
40085;DHT22;25786;51.504;7.344;2022-08-19T02:42:24;18.50;81.90
40085;DHT22;25786;51.504;7.344;2022-08-19T02:44:50;18.50;82.00
40085;DHT22;25786;51.504;7.344;2022-08-19T02:47:17;18.50;82.10
40085;DHT22;25786;51.504;7.344;2022-08-19T02:49:44;18.30;82.50
40085;DHT22;25786;51.504;7.344;2022-08-19T02:52:09;18.30;82.60
40085;DHT22;25786;51.504;7.344;2022-08-19T02:54:36;18.40;82.30
40085;DHT22;25786;51.504;7.344;2022-08-19T02:57:02;18.50;82.20
40085;DHT22;25786;51.504;7.344;2022-08-19T02:59:30;18.40;82.00
40085;DHT22;25786;51.504;7.344;2022-08-19T03:01:56;18.30;82.30
40085;DHT22;25786;51.504;7.344;2022-08-19T03:04:21;18.30;82.20
40085;DHT22;25786;51.504;7.344;2022-08-19T03:06:48;18.30;82.10
40085;DHT22;25786;51.504;7.344;2022-08-19T03:09:13;18.20;82.10
40085;DHT22;25786;51.504;7.344;2022-08-19T03:11:39;18.10;82.40
40085;DHT22;25786;51.504;7.344;2022-08-19T03:14:05;18.10;82.60
40085;DHT22;25786;51.504;7.344;2022-08-19T03:16:33;18.10;82.60
40085;DHT22;25786;51.504;7.344;2022-08-19T03:18:58;18.10;83.00
40085;DHT22;25786;51.504;7.344;2022-08-19T03:21:25;18.10;83.30
40085;DHT22;25786;51.504;7.344;2022-08-19T03:23:55;18.20;83.30
40085;DHT22;25786;51.504;7.344;2022-08-19T03:26:20;18.20;83.30
40085;DHT22;25786;51.504;7.344;2022-08-19T03:28:46;18.30;83.20
40085;DHT22;25786;51.504;7.344;2022-08-19T03:31:16;18.20;83.20
40085;DHT22;25786;51.504;7.344;2022-08-19T03:33:42;18.30;83.30
40085;DHT22;25786;51.504;7.344;2022-08-19T03:36:12;18.40;83.10
40085;DHT22;25786;51.504;7.344;2022-08-19T03:38:39;18.40;83.10
40085;DHT22;25786;51.504;7.344;2022-08-19T03:41:07;18.40;83.20
40085;DHT22;25786;51.504;7.344;2022-08-19T03:43:34;18.30;83.20
40085;DHT22;25786;51.504;7.344;2022-08-19T03:46:00;18.50;82.90
40085;DHT22;25786;51.504;7.344;2022-08-19T03:48:27;18.30;82.20
40085;DHT22;25786;51.504;7.344;2022-08-19T03:50:53;18.30;82.20
40085;DHT22;25786;51.504;7.344;2022-08-19T03:53:18;18.20;82.10
40085;DHT22;25786;51.504;7.344;2022-08-19T03:55:44;18.10;82.40
40085;DHT22;25786;51.504;7.344;2022-08-19T03:58:09;18.10;82.80
40085;DHT22;25786;51.504;7.344;2022-08-19T04:00:36;18.00;83.20
40085;DHT22;25786;51.504;7.344;2022-08-19T04:03:01;18.10;83.40
40085;DHT22;25786;51.504;7.344;2022-08-19T04:05:27;18.10;83.30
40085;DHT22;25786;51.504;7.344;2022-08-19T04:07:53;18.10;83.50
40085;DHT22;25786;51.504;7.344;2022-08-19T04:10:24;18.10;83.30
40085;DHT22;25786;51.504;7.344;2022-08-19T04:12:49;18.00;83.50
40085;DHT22;25786;51.504;7.344;2022-08-19T04:15:15;18.00;83.50
40085;DHT22;25786;51.504;7.344;2022-08-19T04:17:40;17.90;83.50
40085;DHT22;25786;51.504;7.344;2022-08-19T04:20:06;17.90;83.20
40085;DHT22;25786;51.504;7.344;2022-08-19T04:22:31;17.80;83.50
40085;DHT22;25786;51.504;7.344;2022-08-19T04:24:57;17.70;83.80
40085;DHT22;25786;51.504;7.344;2022-08-19T04:27:22;17.80;83.70
40085;DHT22;25786;51.504;7.344;2022-08-19T04:29:47;17.80;83.70
40085;DHT22;25786;51.504;7.344;2022-08-19T04:32:13;17.90;83.90
40085;DHT22;25786;51.504;7.344;2022-08-19T04:34:40;18.00;83.80
40085;DHT22;25786;51.504;7.344;2022-08-19T04:37:07;18.00;83.80
40085;DHT22;25786;51.504;7.344;2022-08-19T04:39:38;18.10;83.50
40085;DHT22;25786;51.504;7.344;2022-08-19T04:42:22;18.10;83.50
40085;DHT22;25786;51.504;7.344;2022-08-19T04:45:05;18.10;83.50
40085;DHT22;25786;51.504;7.344;2022-08-19T04:47:30;18.10;83.30
40085;DHT22;25786;51.504;7.344;2022-08-19T04:49:57;18.00;83.00
40085;DHT22;25786;51.504;7.344;2022-08-19T04:52:22;17.90;82.80
40085;DHT22;25786;51.504;7.344;2022-08-19T04:54:48;17.80;82.90
40085;DHT22;25786;51.504;7.344;2022-08-19T04:57:14;17.90;83.00
40085;DHT22;25786;51.504;7.344;2022-08-19T04:59:41;18.00;83.50
40085;DHT22;25786;51.504;7.344;2022-08-19T05:02:07;18.10;83.40
40085;DHT22;25786;51.504;7.344;2022-08-19T05:04:33;18.20;83.40
40085;DHT22;25786;51.504;7.344;2022-08-19T05:06:59;18.30;83.30
40085;DHT22;25786;51.504;7.344;2022-08-19T05:09:24;18.30;83.30
40085;DHT22;25786;51.504;7.344;2022-08-19T05:11:50;18.30;83.20
40085;DHT22;25786;51.504;7.344;2022-08-19T05:14:17;18.40;82.80
40085;DHT22;25786;51.504;7.344;2022-08-19T05:16:43;18.30;82.70
40085;DHT22;25786;51.504;7.344;2022-08-19T05:19:09;18.40;82.70
40085;DHT22;25786;51.504;7.344;2022-08-19T05:21:53;18.50;83.00
40085;DHT22;25786;51.504;7.344;2022-08-19T05:24:37;18.60;83.00
40085;DHT22;25786;51.504;7.344;2022-08-19T05:27:03;18.60;83.00
40085;DHT22;25786;51.504;7.344;2022-08-19T05:29:30;18.70;82.90
40085;DHT22;25786;51.504;7.344;2022-08-19T05:31:56;18.80;83.00
40085;DHT22;25786;51.504;7.344;2022-08-19T05:34:23;18.90;82.70
40085;DHT22;25786;51.504;7.344;2022-08-19T05:36:55;18.90;82.60
40085;DHT22;25786;51.504;7.344;2022-08-19T05:39:22;19.00;82.30
40085;DHT22;25786;51.504;7.344;2022-08-19T05:41:50;19.00;82.20
40085;DHT22;25786;51.504;7.344;2022-08-19T05:44:16;19.00;82.30
40085;DHT22;25786;51.504;7.344;2022-08-19T05:46:44;19.00;82.10
40085;DHT22;25786;51.504;7.344;2022-08-19T05:49:16;19.00;82.10
40085;DHT22;25786;51.504;7.344;2022-08-19T05:51:42;19.00;82.30
40085;DHT22;25786;51.504;7.344;2022-08-19T05:54:08;19.00;82.40
40085;DHT22;25786;51.504;7.344;2022-08-19T05:56:34;19.10;82.30
40085;DHT22;25786;51.504;7.344;2022-08-19T05:59:03;19.10;82.20
40085;DHT22;25786;51.504;7.344;2022-08-19T06:01:32;19.30;81.80
40085;DHT22;25786;51.504;7.344;2022-08-19T06:03:57;19.40;81.70
40085;DHT22;25786;51.504;7.344;2022-08-19T06:06:23;19.50;81.40
40085;DHT22;25786;51.504;7.344;2022-08-19T06:08:48;19.60;81.40
40085;DHT22;25786;51.504;7.344;2022-08-19T06:13:41;19.80;80.80
40085;DHT22;25786;51.504;7.344;2022-08-19T06:16:07;19.80;80.40
40085;DHT22;25786;51.504;7.344;2022-08-19T06:18:32;19.80;80.70
40085;DHT22;25786;51.504;7.344;2022-08-19T06:20:58;19.80;80.60
40085;DHT22;25786;51.504;7.344;2022-08-19T06:23:24;20.00;80.50
40085;DHT22;25786;51.504;7.344;2022-08-19T06:25:49;20.00;80.20
40085;DHT22;25786;51.504;7.344;2022-08-19T06:28:14;20.10;80.20
40085;DHT22;25786;51.504;7.344;2022-08-19T06:30:40;20.10;79.90
40085;DHT22;25786;51.504;7.344;2022-08-19T06:33:05;20.10;80.00
40085;DHT22;25786;51.504;7.344;2022-08-19T06:35:31;20.20;79.90
40085;DHT22;25786;51.504;7.344;2022-08-19T06:37:56;20.20;79.70
40085;DHT22;25786;51.504;7.344;2022-08-19T06:40:22;20.40;79.60
40085;DHT22;25786;51.504;7.344;2022-08-19T06:42:47;20.40;79.30
40085;DHT22;25786;51.504;7.344;2022-08-19T06:45:13;20.50;79.10
40085;DHT22;25786;51.504;7.344;2022-08-19T06:47:39;20.50;79.00
40085;DHT22;25786;51.504;7.344;2022-08-19T06:50:05;20.60;78.90
40085;DHT22;25786;51.504;7.344;2022-08-19T06:52:32;20.60;78.90
40085;DHT22;25786;51.504;7.344;2022-08-19T06:54:59;20.60;78.90
40085;DHT22;25786;51.504;7.344;2022-08-19T06:57:24;20.80;78.80
40085;DHT22;25786;51.504;7.344;2022-08-19T06:59:50;20.80;78.80
40085;DHT22;25786;51.504;7.344;2022-08-19T07:02:16;21.00;78.30
40085;DHT22;25786;51.504;7.344;2022-08-19T07:04:41;21.10;77.90
40085;DHT22;25786;51.504;7.344;2022-08-19T07:07:08;21.10;77.80
40085;DHT22;25786;51.504;7.344;2022-08-19T07:09:35;21.10;77.70
40085;DHT22;25786;51.504;7.344;2022-08-19T07:12:03;21.20;77.60
40085;DHT22;25786;51.504;7.344;2022-08-19T07:14:28;21.20;77.60
40085;DHT22;25786;51.504;7.344;2022-08-19T07:16:55;21.40;77.30
40085;DHT22;25786;51.504;7.344;2022-08-19T07:19:21;21.40;76.80
40085;DHT22;25786;51.504;7.344;2022-08-19T07:21:48;21.50;76.80
40085;DHT22;25786;51.504;7.344;2022-08-19T07:24:14;21.40;76.40
40085;DHT22;25786;51.504;7.344;2022-08-19T07:26:40;21.50;76.50
40085;DHT22;25786;51.504;7.344;2022-08-19T07:29:06;21.50;76.50
40085;DHT22;25786;51.504;7.344;2022-08-19T07:31:32;21.50;76.40
40085;DHT22;25786;51.504;7.344;2022-08-19T07:34:02;21.50;76.10
40085;DHT22;25786;51.504;7.344;2022-08-19T07:36:28;21.60;75.80
40085;DHT22;25786;51.504;7.344;2022-08-19T07:38:58;21.60;75.70
40085;DHT22;25786;51.504;7.344;2022-08-19T07:41:24;21.60;75.70
40085;DHT22;25786;51.504;7.344;2022-08-19T07:43:50;21.70;75.20
40085;DHT22;25786;51.504;7.344;2022-08-19T07:46:17;21.80;75.20
40085;DHT22;25786;51.504;7.344;2022-08-19T07:48:43;21.90;75.20
40085;DHT22;25786;51.504;7.344;2022-08-19T07:51:10;21.90;74.90
40085;DHT22;25786;51.504;7.344;2022-08-19T07:53:36;21.90;74.60
40085;DHT22;25786;51.504;7.344;2022-08-19T07:56:02;22.00;74.40
40085;DHT22;25786;51.504;7.344;2022-08-19T07:58:30;22.10;74.10
40085;DHT22;25786;51.504;7.344;2022-08-19T08:00:56;22.10;74.00
40085;DHT22;25786;51.504;7.344;2022-08-19T08:03:22;22.10;73.90
40085;DHT22;25786;51.504;7.344;2022-08-19T08:06:11;22.30;72.70
40085;DHT22;25786;51.504;7.344;2022-08-19T08:08:55;22.50;72.20
40085;DHT22;25786;51.504;7.344;2022-08-19T08:11:40;22.40;72.20
40085;DHT22;25786;51.504;7.344;2022-08-19T08:14:06;22.40;72.70
40085;DHT22;25786;51.504;7.344;2022-08-19T08:16:36;22.60;71.70
40085;DHT22;25786;51.504;7.344;2022-08-19T08:19:03;22.70;71.50
40085;DHT22;25786;51.504;7.344;2022-08-19T08:21:28;22.60;71.90
40085;DHT22;25786;51.504;7.344;2022-08-19T08:23:54;22.70;72.00
40085;DHT22;25786;51.504;7.344;2022-08-19T08:26:20;22.80;72.00
40085;DHT22;25786;51.504;7.344;2022-08-19T08:28:46;22.80;71.40
40085;DHT22;25786;51.504;7.344;2022-08-19T08:31:13;22.70;71.50
40085;DHT22;25786;51.504;7.344;2022-08-19T08:33:39;22.70;71.70
40085;DHT22;25786;51.504;7.344;2022-08-19T08:36:07;22.60;71.80
40085;DHT22;25786;51.504;7.344;2022-08-19T08:38:33;22.80;71.40
40085;DHT22;25786;51.504;7.344;2022-08-19T08:41:09;22.80;72.00
40085;DHT22;25786;51.504;7.344;2022-08-19T08:43:39;22.80;71.70
40085;DHT22;25786;51.504;7.344;2022-08-19T08:46:16;22.90;72.00
40085;DHT22;25786;51.504;7.344;2022-08-19T08:49:03;23.00;71.20
40085;DHT22;25786;51.504;7.344;2022-08-19T08:53:59;23.10;70.20
40085;DHT22;25786;51.504;7.344;2022-08-19T08:56:24;23.30;70.00
40085;DHT22;25786;51.504;7.344;2022-08-19T08:58:51;23.40;69.60
40085;DHT22;25786;51.504;7.344;2022-08-19T09:01:19;23.40;69.50
40085;DHT22;25786;51.504;7.344;2022-08-19T09:03:45;23.40;69.40
40085;DHT22;25786;51.504;7.344;2022-08-19T09:06:18;23.50;69.20
40085;DHT22;25786;51.504;7.344;2022-08-19T09:09:10;23.50;67.90
40085;DHT22;25786;51.504;7.344;2022-08-19T09:11:47;23.60;67.80
40085;DHT22;25786;51.504;7.344;2022-08-19T09:16:58;23.70;65.50
40085;DHT22;25786;51.504;7.344;2022-08-19T09:19:24;23.80;65.40
40085;DHT22;25786;51.504;7.344;2022-08-19T09:21:50;24.00;65.20
40085;DHT22;25786;51.504;7.344;2022-08-19T09:24:16;23.90;64.80
40085;DHT22;25786;51.504;7.344;2022-08-19T09:26:41;24.00;65.10
40085;DHT22;25786;51.504;7.344;2022-08-19T09:29:09;23.90;63.60
40085;DHT22;25786;51.504;7.344;2022-08-19T09:31:35;23.80;64.20
40085;DHT22;25786;51.504;7.344;2022-08-19T09:34:00;24.00;64.10
40085;DHT22;25786;51.504;7.344;2022-08-19T09:36:28;24.10;64.70
40085;DHT22;25786;51.504;7.344;2022-08-19T09:38:55;24.30;64.60
40085;DHT22;25786;51.504;7.344;2022-08-19T09:41:22;24.40;64.00
40085;DHT22;25786;51.504;7.344;2022-08-19T09:43:48;24.50;63.80
40085;DHT22;25786;51.504;7.344;2022-08-19T09:46:17;24.50;64.10
40085;DHT22;25786;51.504;7.344;2022-08-19T09:48:44;24.90;63.50
40085;DHT22;25786;51.504;7.344;2022-08-19T09:51:14;25.20;62.80
40085;DHT22;25786;51.504;7.344;2022-08-19T09:53:43;25.40;61.80
40085;DHT22;25786;51.504;7.344;2022-08-19T09:56:09;25.50;61.50
40085;DHT22;25786;51.504;7.344;2022-08-19T09:58:35;25.30;61.20
40085;DHT22;25786;51.504;7.344;2022-08-19T10:01:01;25.30;60.70
40085;DHT22;25786;51.504;7.344;2022-08-19T10:03:27;25.10;60.60
40085;DHT22;25786;51.504;7.344;2022-08-19T10:05:53;24.90;61.40
40085;DHT22;25786;51.504;7.344;2022-08-19T10:08:20;24.70;62.30
40085;DHT22;25786;51.504;7.344;2022-08-19T10:10:46;24.70;61.20
40085;DHT22;25786;51.504;7.344;2022-08-19T10:13:13;24.70;60.50
40085;DHT22;25786;51.504;7.344;2022-08-19T10:15:39;24.60;61.50
40085;DHT22;25786;51.504;7.344;2022-08-19T10:18:06;24.60;61.40
40085;DHT22;25786;51.504;7.344;2022-08-19T10:20:31;24.90;59.80
40085;DHT22;25786;51.504;7.344;2022-08-19T10:22:57;25.10;59.20
40085;DHT22;25786;51.504;7.344;2022-08-19T10:25:24;25.40;59.30
40085;DHT22;25786;51.504;7.344;2022-08-19T10:27:51;25.30;58.40
40085;DHT22;25786;51.504;7.344;2022-08-19T10:30:16;25.20;59.10
40085;DHT22;25786;51.504;7.344;2022-08-19T10:32:42;25.10;59.60
40085;DHT22;25786;51.504;7.344;2022-08-19T10:35:07;25.10;58.30
40085;DHT22;25786;51.504;7.344;2022-08-19T10:37:34;24.90;59.10
40085;DHT22;25786;51.504;7.344;2022-08-19T10:39:59;25.00;59.30
40085;DHT22;25786;51.504;7.344;2022-08-19T10:42:25;24.80;58.80
40085;DHT22;25786;51.504;7.344;2022-08-19T10:44:51;24.80;59.60
40085;DHT22;25786;51.504;7.344;2022-08-19T10:47:16;24.80;58.90
40085;DHT22;25786;51.504;7.344;2022-08-19T10:49:41;24.80;59.60
40085;DHT22;25786;51.504;7.344;2022-08-19T10:52:26;24.80;58.10
40085;DHT22;25786;51.504;7.344;2022-08-19T10:55:01;25.00;58.10
40085;DHT22;25786;51.504;7.344;2022-08-19T10:57:45;24.90;58.40
40085;DHT22;25786;51.504;7.344;2022-08-19T11:00:10;24.90;58.30
40085;DHT22;25786;51.504;7.344;2022-08-19T11:02:36;24.90;57.90
40085;DHT22;25786;51.504;7.344;2022-08-19T11:05:02;25.00;58.00
40085;DHT22;25786;51.504;7.344;2022-08-19T11:07:28;25.00;58.90
40085;DHT22;25786;51.504;7.344;2022-08-19T11:09:53;25.00;57.80
40085;DHT22;25786;51.504;7.344;2022-08-19T11:12:19;25.00;55.10
40085;DHT22;25786;51.504;7.344;2022-08-19T11:14:44;24.90;55.80
40085;DHT22;25786;51.504;7.344;2022-08-19T11:17:10;24.90;57.50
40085;DHT22;25786;51.504;7.344;2022-08-19T11:19:38;24.90;57.20
40085;DHT22;25786;51.504;7.344;2022-08-19T11:22:06;25.00;55.70
40085;DHT22;25786;51.504;7.344;2022-08-19T11:24:33;25.10;54.50
40085;DHT22;25786;51.504;7.344;2022-08-19T11:27:06;25.10;54.90
40085;DHT22;25786;51.504;7.344;2022-08-19T11:29:34;25.10;54.90
40085;DHT22;25786;51.504;7.344;2022-08-19T11:32:02;25.20;55.30
40085;DHT22;25786;51.504;7.344;2022-08-19T11:34:28;25.40;54.90
40085;DHT22;25786;51.504;7.344;2022-08-19T11:36:54;25.40;55.30
40085;DHT22;25786;51.504;7.344;2022-08-19T11:39:23;25.50;54.90
40085;DHT22;25786;51.504;7.344;2022-08-19T11:41:48;25.60;54.90
40085;DHT22;25786;51.504;7.344;2022-08-19T11:44:14;25.50;55.20
40085;DHT22;25786;51.504;7.344;2022-08-19T11:46:40;25.50;55.60
40085;DHT22;25786;51.504;7.344;2022-08-19T11:49:06;25.30;56.40
40085;DHT22;25786;51.504;7.344;2022-08-19T11:51:32;25.20;56.90
40085;DHT22;25786;51.504;7.344;2022-08-19T11:53:58;25.30;57.10
40085;DHT22;25786;51.504;7.344;2022-08-19T11:56:25;25.00;57.40
40085;DHT22;25786;51.504;7.344;2022-08-19T11:58:51;25.00;58.00
40085;DHT22;25786;51.504;7.344;2022-08-19T12:01:17;25.00;57.60
40085;DHT22;25786;51.504;7.344;2022-08-19T12:03:44;25.10;56.80
40085;DHT22;25786;51.504;7.344;2022-08-19T12:06:12;25.00;56.60
40085;DHT22;25786;51.504;7.344;2022-08-19T12:08:39;25.00;55.20
40085;DHT22;25786;51.504;7.344;2022-08-19T12:11:04;25.20;53.60
40085;DHT22;25786;51.504;7.344;2022-08-19T12:13:33;25.30;53.60
40085;DHT22;25786;51.504;7.344;2022-08-19T12:15:59;25.40;53.90
40085;DHT22;25786;51.504;7.344;2022-08-19T12:18:24;25.60;53.50
40085;DHT22;25786;51.504;7.344;2022-08-19T12:20:50;25.70;53.40
40085;DHT22;25786;51.504;7.344;2022-08-19T12:23:16;25.80;52.70
40085;DHT22;25786;51.504;7.344;2022-08-19T12:25:45;25.60;53.30
40085;DHT22;25786;51.504;7.344;2022-08-19T12:28:20;25.50;53.70
40085;DHT22;25786;51.504;7.344;2022-08-19T12:30:46;25.60;54.00
40085;DHT22;25786;51.504;7.344;2022-08-19T12:33:12;25.60;54.20
40085;DHT22;25786;51.504;7.344;2022-08-19T12:35:39;25.90;54.60
40085;DHT22;25786;51.504;7.344;2022-08-19T12:38:05;25.90;54.50
40085;DHT22;25786;51.504;7.344;2022-08-19T12:40:32;26.00;54.50
40085;DHT22;25786;51.504;7.344;2022-08-19T12:42:57;26.10;54.50
40085;DHT22;25786;51.504;7.344;2022-08-19T12:45:22;25.90;54.50
40085;DHT22;25786;51.504;7.344;2022-08-19T12:47:48;25.90;54.80
40085;DHT22;25786;51.504;7.344;2022-08-19T12:50:14;25.90;54.10
40085;DHT22;25786;51.504;7.344;2022-08-19T12:52:40;25.80;54.00
40085;DHT22;25786;51.504;7.344;2022-08-19T12:55:07;25.80;54.10
40085;DHT22;25786;51.504;7.344;2022-08-19T12:57:33;25.90;53.10
40085;DHT22;25786;51.504;7.344;2022-08-19T13:00:11;25.90;52.60
40085;DHT22;25786;51.504;7.344;2022-08-19T13:02:41;26.00;53.00
40085;DHT22;25786;51.504;7.344;2022-08-19T13:05:09;26.10;51.40
40085;DHT22;25786;51.504;7.344;2022-08-19T13:07:36;26.20;50.70
40085;DHT22;25786;51.504;7.344;2022-08-19T13:10:02;26.40;49.80
40085;DHT22;25786;51.504;7.344;2022-08-19T13:12:28;26.50;48.90
40085;DHT22;25786;51.504;7.344;2022-08-19T13:14:54;26.50;48.70
40085;DHT22;25786;51.504;7.344;2022-08-19T13:17:20;26.50;48.70
40085;DHT22;25786;51.504;7.344;2022-08-19T13:19:45;26.60;48.60
40085;DHT22;25786;51.504;7.344;2022-08-19T13:22:11;26.50;48.40
40085;DHT22;25786;51.504;7.344;2022-08-19T13:24:37;26.50;48.60
40085;DHT22;25786;51.504;7.344;2022-08-19T13:27:03;26.40;49.70
40085;DHT22;25786;51.504;7.344;2022-08-19T13:29:28;26.30;48.70
40085;DHT22;25786;51.504;7.344;2022-08-19T13:32:12;26.40;48.90
40085;DHT22;25786;51.504;7.344;2022-08-19T13:34:56;26.40;48.80
40085;DHT22;25786;51.504;7.344;2022-08-19T13:37:22;26.40;48.70
40085;DHT22;25786;51.504;7.344;2022-08-19T13:40:07;26.50;49.30
40085;DHT22;25786;51.504;7.344;2022-08-19T13:42:32;26.60;48.70
40085;DHT22;25786;51.504;7.344;2022-08-19T13:44:58;26.80;48.50
40085;DHT22;25786;51.504;7.344;2022-08-19T13:47:23;26.80;49.20
40085;DHT22;25786;51.504;7.344;2022-08-19T13:49:49;26.80;48.20
40085;DHT22;25786;51.504;7.344;2022-08-19T13:52:15;26.80;48.50
40085;DHT22;25786;51.504;7.344;2022-08-19T13:54:40;26.80;48.80
40085;DHT22;25786;51.504;7.344;2022-08-19T13:57:06;26.90;48.20
40085;DHT22;25786;51.504;7.344;2022-08-19T13:59:31;27.00;48.00
40085;DHT22;25786;51.504;7.344;2022-08-19T14:01:58;26.90;48.20
40085;DHT22;25786;51.504;7.344;2022-08-19T14:04:24;26.90;48.50
40085;DHT22;25786;51.504;7.344;2022-08-19T14:06:50;27.00;48.20
40085;DHT22;25786;51.504;7.344;2022-08-19T14:09:15;27.00;48.30
40085;DHT22;25786;51.504;7.344;2022-08-19T14:11:41;27.00;47.60
40085;DHT22;25786;51.504;7.344;2022-08-19T14:14:06;27.00;46.90
40085;DHT22;25786;51.504;7.344;2022-08-19T14:16:32;26.90;46.80
40085;DHT22;25786;51.504;7.344;2022-08-19T14:19:06;26.80;47.40
40085;DHT22;25786;51.504;7.344;2022-08-19T14:21:32;26.60;47.80
40085;DHT22;25786;51.504;7.344;2022-08-19T14:23:58;26.60;47.00
40085;DHT22;25786;51.504;7.344;2022-08-19T14:26:24;26.60;47.10
40085;DHT22;25786;51.504;7.344;2022-08-19T14:28:52;26.50;47.60
40085;DHT22;25786;51.504;7.344;2022-08-19T14:31:18;26.80;46.10
40085;DHT22;25786;51.504;7.344;2022-08-19T14:33:45;26.90;45.50
40085;DHT22;25786;51.504;7.344;2022-08-19T14:36:13;26.80;47.10
40085;DHT22;25786;51.504;7.344;2022-08-19T14:38:39;26.80;46.40
